createdAt,value
2017-05-07T00:00:19.650Z,19.40
2017-05-07T00:02:48.010Z,19.32
2017-05-07T00:05:16.326Z,21.38
2017-05-07T00:07:45.385Z,16.08
2017-05-07T00:10:13.730Z,24.68
2017-05-07T00:12:42.028Z,20.10
2017-05-07T00:15:10.323Z,17.04
2017-05-07T00:17:38.677Z,15.08
2017-05-07T00:20:06.979Z,13.70
2017-05-07T00:22:35.298Z,16.12
2017-05-07T00:25:04.392Z,11.08
2017-05-07T00:27:33.447Z,9.68
2017-05-07T00:30:01.762Z,12.26
2017-05-07T00:32:30.876Z,11.30
2017-05-07T00:34:59.196Z,15.86
2017-05-07T00:37:27.506Z,13.00
2017-05-07T00:39:55.857Z,15.44
2017-05-07T00:42:24.159Z,15.18
2017-05-07T00:44:52.481Z,23.56
2017-05-07T00:47:20.840Z,21.36
2017-05-07T00:49:49.143Z,17.74
2017-05-07T00:52:17.438Z,19.02
2017-05-07T00:54:45.763Z,14.98
2017-05-07T00:57:14.819Z,17.14
2017-05-07T00:59:43.135Z,19.00
2017-05-07T01:02:12.227Z,22.02
2017-05-07T01:04:41.283Z,26.22
2017-05-07T01:07:09.603Z,23.00
2017-05-07T01:09:38.699Z,21.68
2017-05-07T01:12:07.759Z,19.50
2017-05-07T01:14:36.074Z,17.46
2017-05-07T01:17:05.159Z,13.00
2017-05-07T01:19:33.481Z,15.94
2017-05-07T01:22:01.783Z,14.86
2017-05-07T01:24:30.139Z,14.50
2017-05-07T01:26:58.449Z,13.52
2017-05-07T01:29:26.775Z,15.96
2017-05-07T01:31:55.108Z,13.74
2017-05-07T01:34:23.428Z,23.54
2017-05-07T01:36:51.750Z,12.06
2017-05-07T01:39:20.106Z,13.30
2017-05-07T01:41:48.421Z,14.02
2017-05-07T01:44:16.739Z,15.34
2017-05-07T01:46:45.089Z,15.78
2017-05-07T01:49:13.402Z,15.52
2017-05-07T01:51:41.717Z,14.08
2017-05-07T01:54:10.067Z,12.48
2017-05-07T01:56:39.127Z,10.78
2017-05-07T01:59:07.451Z,21.70
2017-05-07T02:01:36.546Z,17.62
2017-05-07T02:04:05.607Z,20.94
2017-05-07T02:06:33.931Z,18.20
2017-05-07T02:09:02.279Z,13.26
2017-05-07T02:11:30.598Z,12.26
2017-05-07T02:13:58.901Z,10.52
2017-05-07T02:16:27.247Z,9.02
2017-05-07T02:18:55.558Z,10.78
2017-05-07T02:21:23.878Z,8.12
2017-05-07T02:23:52.958Z,11.70
2017-05-07T02:26:21.270Z,12.20
2017-05-07T02:28:49.581Z,7.60
2017-05-07T02:31:17.911Z,8.02
2017-05-07T02:33:46.978Z,19.06
2017-05-07T02:36:15.290Z,9.14
2017-05-07T02:38:44.386Z,16.64
2017-05-07T02:41:13.418Z,9.38
2017-05-07T02:43:41.735Z,13.18
2017-05-07T02:46:10.089Z,14.38
2017-05-07T02:48:38.407Z,11.82
2017-05-07T02:51:07.467Z,13.28
2017-05-07T02:53:35.803Z,9.86
2017-05-07T02:56:04.095Z,9.22
2017-05-07T02:58:32.406Z,8.00
2017-05-07T03:01:00.754Z,12.40
2017-05-07T03:03:29.071Z,17.12
2017-05-07T03:05:57.387Z,10.24
2017-05-07T03:08:25.708Z,11.02
2017-05-07T03:10:54.018Z,9.74
2017-05-07T03:13:22.334Z,7.68
2017-05-07T03:15:50.686Z,9.06
2017-05-07T03:18:19.743Z,7.78
2017-05-07T03:20:48.040Z,7.90
2017-05-07T03:23:16.359Z,6.60
2017-05-07T03:25:44.666Z,4.82
2017-05-07T03:28:12.978Z,5.04
2017-05-07T03:30:41.331Z,6.30
2017-05-07T03:33:09.640Z,9.58
2017-05-07T03:35:38.677Z,6.94
2017-05-07T03:38:07.022Z,7.04
2017-05-07T03:40:36.059Z,5.80
2017-05-07T03:43:04.351Z,4.66
2017-05-07T03:45:32.678Z,5.10
2017-05-07T03:48:01.715Z,4.10
2017-05-07T03:50:30.007Z,5.38
2017-05-07T03:52:58.343Z,10.06
2017-05-07T03:55:26.639Z,7.44
2017-05-07T03:57:54.930Z,9.36
2017-05-07T04:00:23.251Z,7.90
2017-05-07T04:02:52.284Z,8.28
2017-05-07T04:05:20.576Z,8.54
2017-05-07T04:07:48.896Z,6.28
2017-05-07T04:10:17.186Z,7.74
2017-05-07T04:12:46.223Z,10.96
2017-05-07T04:15:14.551Z,7.82
2017-05-07T04:17:43.584Z,6.42
2017-05-07T04:20:11.883Z,6.04
2017-05-07T04:22:40.211Z,7.14
2017-05-07T04:25:09.246Z,9.28
2017-05-07T04:27:37.548Z,10.92
2017-05-07T04:30:05.872Z,5.92
2017-05-07T04:32:34.158Z,7.50
2017-05-07T04:35:02.451Z,10.94
2017-05-07T04:37:30.787Z,8.60
2017-05-07T04:39:59.828Z,9.08
2017-05-07T04:42:28.123Z,9.12
2017-05-07T04:44:56.456Z,7.94
2017-05-07T04:47:24.761Z,9.22
2017-05-07T04:49:53.064Z,10.36
2017-05-07T04:52:21.391Z,14.84
2017-05-07T04:54:49.691Z,9.94
2017-05-07T04:57:17.991Z,9.98
2017-05-07T04:59:46.319Z,9.60
2017-05-07T05:02:14.628Z,11.94
2017-05-07T05:04:42.927Z,10.72
2017-05-07T05:07:11.263Z,7.84
2017-05-07T05:09:39.556Z,8.46
2017-05-07T05:12:07.847Z,8.96
2017-05-07T05:14:36.187Z,11.04
2017-05-07T05:17:04.493Z,13.18
2017-05-07T05:19:47.704Z,6.80
2017-05-07T05:22:33.688Z,7.02
2017-05-07T05:25:19.667Z,10.60
2017-05-07T05:27:48.702Z,6.14
2017-05-07T05:30:23.949Z,7.26
2017-05-07T05:32:52.243Z,6.56
2017-05-07T05:35:20.536Z,6.62
2017-05-07T05:37:48.864Z,7.18
2017-05-07T05:40:17.164Z,5.64
2017-05-07T05:42:45.457Z,4.72
2017-05-07T05:45:13.793Z,7.10
2017-05-07T05:47:42.090Z,9.98
2017-05-07T05:50:10.384Z,7.00
2017-05-07T05:52:38.719Z,6.74
2017-05-07T05:55:07.015Z,6.74
2017-05-07T05:57:35.311Z,12.08
2017-05-07T06:00:03.631Z,6.80
2017-05-07T06:02:31.927Z,7.18
2017-05-07T06:05:00.219Z,6.50
2017-05-07T06:07:28.559Z,4.42
2017-05-07T06:09:56.855Z,9.16
2017-05-07T06:12:25.147Z,8.36
2017-05-07T06:14:53.747Z,6.42
2017-05-07T06:17:22.046Z,6.04
2017-05-07T06:19:51.087Z,6.42
2017-05-07T06:22:19.419Z,6.82
2017-05-07T06:24:47.722Z,6.28
2017-05-07T06:27:16.056Z,7.06
2017-05-07T06:29:44.387Z,6.60
2017-05-07T06:32:12.684Z,9.24
2017-05-07T06:34:40.983Z,6.88
2017-05-07T06:37:10.059Z,8.96
2017-05-07T06:39:38.358Z,9.10
2017-05-07T06:42:07.392Z,7.66
2017-05-07T06:44:35.720Z,6.80
2017-05-07T06:47:04.759Z,8.08
2017-05-07T06:49:33.059Z,6.74
2017-05-07T06:52:01.393Z,8.84
2017-05-07T06:54:29.695Z,20.12
2017-05-07T06:56:57.990Z,8.02
2017-05-07T06:59:26.315Z,7.58
2017-05-07T07:01:55.351Z,6.98
2017-05-07T07:04:24.384Z,9.04
2017-05-07T07:06:52.727Z,7.92
2017-05-07T07:09:21.759Z,8.26
2017-05-07T07:11:50.055Z,7.90
2017-05-07T07:14:18.388Z,8.94
2017-05-07T07:16:46.684Z,6.82
2017-05-07T07:19:14.979Z,7.94
2017-05-07T07:21:43.315Z,6.16
2017-05-07T07:24:12.359Z,7.98
2017-05-07T07:26:40.655Z,6.48
2017-05-07T07:29:09.013Z,13.90
2017-05-07T07:31:37.310Z,6.88
2017-05-07T07:34:05.623Z,6.70
2017-05-07T07:36:34.691Z,7.10
2017-05-07T07:39:03.760Z,6.82
2017-05-07T07:41:32.048Z,6.88
2017-05-07T07:44:01.117Z,17.00
2017-05-07T07:46:29.416Z,6.42
2017-05-07T07:48:57.715Z,6.44
2017-05-07T07:51:26.816Z,6.62
2017-05-07T07:53:55.839Z,6.88
2017-05-07T07:56:24.137Z,6.78
2017-05-07T07:58:52.467Z,6.76
2017-05-07T08:01:20.759Z,7.70
2017-05-07T08:03:49.054Z,6.80
2017-05-07T08:06:17.373Z,6.46
2017-05-07T08:08:45.675Z,6.64
2017-05-07T08:11:14.713Z,6.90
2017-05-07T08:13:43.052Z,8.04
2017-05-07T08:16:11.347Z,6.86
2017-05-07T08:18:39.638Z,7.18
2017-05-07T08:21:07.972Z,8.96
2017-05-07T08:23:37.008Z,8.38
2017-05-07T08:26:05.300Z,7.52
2017-05-07T08:28:33.634Z,6.24
2017-05-07T08:31:01.931Z,5.98
2017-05-07T08:33:30.219Z,6.90
2017-05-07T08:35:58.543Z,7.90
2017-05-07T08:38:27.571Z,7.30
2017-05-07T08:40:55.863Z,6.06
2017-05-07T08:43:24.200Z,7.86
2017-05-07T08:45:52.500Z,6.06
2017-05-07T08:48:20.795Z,7.54
2017-05-07T08:50:49.127Z,5.98
2017-05-07T08:53:18.160Z,6.98
2017-05-07T08:55:46.455Z,6.00
2017-05-07T08:58:14.791Z,7.04
2017-05-07T09:00:43.085Z,6.78
2017-05-07T09:03:12.819Z,6.70
2017-05-07T09:05:41.147Z,6.10
2017-05-07T09:08:09.444Z,5.84
2017-05-07T09:10:37.744Z,5.98
2017-05-07T09:13:20.942Z,6.22
2017-05-07T09:16:04.919Z,5.48
2017-05-07T09:18:50.891Z,5.70
2017-05-07T09:21:19.928Z,6.10
2017-05-07T09:23:48.248Z,4.60
2017-05-07T09:26:16.572Z,4.80
2017-05-07T09:28:44.867Z,4.58
2017-05-07T09:31:13.161Z,5.54
2017-05-07T09:33:41.492Z,5.46
2017-05-07T09:36:09.787Z,3.74
2017-05-07T09:38:38.076Z,4.76
2017-05-07T09:41:06.406Z,4.38
2017-05-07T09:43:35.439Z,3.92
2017-05-07T09:46:03.732Z,3.88
2017-05-07T09:48:32.056Z,3.74
2017-05-07T09:51:01.091Z,4.58
2017-05-07T09:53:29.383Z,4.00
2017-05-07T09:55:57.705Z,3.28
2017-05-07T09:58:26.735Z,3.12
2017-05-07T10:00:55.031Z,4.16
2017-05-07T10:03:23.350Z,3.60
2017-05-07T10:05:51.649Z,3.78
2017-05-07T10:08:20.687Z,3.14
2017-05-07T10:10:49.024Z,2.84
2017-05-07T10:13:18.064Z,3.34
2017-05-07T10:15:46.360Z,3.92
2017-05-07T10:18:14.691Z,3.84
2017-05-07T10:20:42.991Z,4.70
2017-05-07T10:23:11.288Z,5.90
2017-05-07T10:25:39.619Z,4.32
2017-05-07T10:28:07.910Z,5.20
2017-05-07T10:30:36.203Z,5.38
2017-05-07T10:33:04.533Z,5.70
2017-05-07T10:35:32.828Z,6.66
2017-05-07T10:38:01.121Z,6.88
2017-05-07T10:40:29.448Z,5.78
2017-05-07T10:42:57.750Z,9.22
2017-05-07T10:45:26.047Z,6.98
2017-05-07T10:47:54.387Z,7.40
2017-05-07T10:50:22.685Z,6.02
2017-05-07T10:52:50.982Z,6.68
2017-05-07T10:55:19.299Z,6.12
2017-05-07T10:57:47.593Z,7.24
2017-05-07T11:00:16.637Z,8.92
2017-05-07T11:02:44.960Z,9.94
2017-05-07T11:05:14.008Z,6.58
2017-05-07T11:07:42.304Z,7.54
2017-05-07T11:10:10.622Z,7.80
2017-05-07T11:12:39.660Z,8.84
2017-05-07T11:15:07.952Z,8.32
2017-05-07T11:17:36.277Z,9.96
2017-05-07T11:20:05.315Z,9.30
2017-05-07T11:22:33.607Z,8.98
2017-05-07T11:25:01.933Z,10.36
2017-05-07T11:27:30.231Z,11.54
2017-05-07T11:29:58.564Z,10.92
2017-05-07T11:32:26.862Z,10.88
2017-05-07T11:34:55.903Z,13.30
2017-05-07T11:37:24.239Z,11.70
2017-05-07T11:39:52.539Z,11.46
2017-05-07T11:42:20.840Z,11.76
2017-05-07T11:44:49.180Z,12.78
2017-05-07T11:47:17.476Z,7.18
2017-05-07T11:49:45.772Z,8.82
2017-05-07T11:52:14.100Z,8.88
2017-05-07T11:54:43.136Z,7.54
2017-05-07T11:57:11.434Z,7.04
2017-05-07T11:59:39.751Z,8.02
2017-05-07T12:02:08.790Z,9.68
2017-05-07T12:04:37.083Z,9.58
2017-05-07T12:07:05.415Z,9.70
2017-05-07T12:09:33.707Z,8.72
2017-05-07T12:12:02.000Z,7.92
2017-05-07T12:14:30.328Z,11.26
2017-05-07T12:16:59.359Z,9.26
2017-05-07T12:19:27.652Z,9.08
2017-05-07T12:21:55.982Z,7.44
2017-05-07T12:24:25.015Z,7.98
2017-05-07T12:26:53.309Z,8.16
2017-05-07T12:29:21.639Z,9.38
2017-05-07T12:31:49.940Z,9.10
2017-05-07T12:34:18.236Z,11.48
2017-05-07T12:36:46.556Z,9.94
2017-05-07T12:39:15.591Z,10.30
2017-05-07T12:41:43.883Z,9.36
2017-05-07T12:44:12.212Z,10.44
2017-05-07T12:46:41.261Z,10.46
2017-05-07T12:49:09.555Z,8.70
2017-05-07T12:51:37.887Z,8.54
2017-05-07T12:54:06.183Z,10.90
2017-05-07T12:56:34.481Z,7.48
2017-05-07T12:59:02.812Z,8.98
2017-05-07T13:01:31.107Z,9.94
2017-05-07T13:03:59.405Z,7.76
2017-05-07T13:06:27.728Z,9.12
2017-05-07T13:08:56.768Z,8.48
2017-05-07T13:11:25.069Z,9.00
2017-05-07T13:13:53.400Z,8.06
2017-05-07T13:16:21.691Z,9.10
2017-05-07T13:18:49.983Z,10.96
2017-05-07T13:21:19.016Z,12.96
2017-05-07T13:23:47.319Z,11.56
2017-05-07T13:26:15.624Z,10.96
2017-05-07T13:28:43.983Z,10.66
2017-05-07T13:31:12.697Z,10.10
2017-05-07T13:33:41.000Z,12.14
2017-05-07T13:36:09.326Z,13.24
2017-05-07T13:38:37.631Z,11.22
2017-05-07T13:41:05.923Z,10.38
2017-05-07T13:43:34.263Z,11.86
2017-05-07T13:46:02.559Z,10.02
2017-05-07T13:48:30.863Z,10.80
2017-05-07T13:50:59.256Z,10.94
2017-05-07T13:53:27.554Z,10.68
2017-05-07T13:55:56.592Z,9.56
2017-05-07T13:58:24.920Z,9.14
2017-05-07T14:00:53.952Z,9.58
2017-05-07T14:03:22.248Z,8.36
2017-05-07T14:05:50.605Z,8.78
2017-05-07T14:08:18.907Z,8.62
2017-05-07T14:10:47.202Z,8.80
2017-05-07T14:13:15.532Z,11.46
2017-05-07T14:15:43.827Z,9.86
2017-05-07T14:18:12.121Z,10.26
2017-05-07T14:20:40.454Z,12.16
2017-05-07T14:23:08.748Z,8.90
2017-05-07T14:25:37.043Z,9.86
2017-05-07T14:28:05.372Z,10.28
2017-05-07T14:30:34.416Z,12.24
2017-05-07T14:33:02.715Z,10.08
2017-05-07T14:35:31.036Z,9.46
2017-05-07T14:37:59.328Z,8.70
2017-05-07T14:40:27.623Z,13.20
2017-05-07T14:42:55.956Z,11.16
2017-05-07T14:45:25.045Z,12.56
2017-05-07T14:47:53.346Z,11.82
2017-05-07T14:50:21.668Z,12.38
2017-05-07T14:52:49.981Z,13.32
2017-05-07T14:55:18.281Z,13.42
2017-05-07T14:57:46.616Z,12.50
2017-05-07T15:00:15.651Z,10.46
2017-05-07T15:02:43.946Z,9.56
2017-05-07T15:05:12.278Z,9.82
2017-05-07T15:07:40.571Z,10.24
2017-05-07T15:10:08.868Z,10.28
2017-05-07T15:12:37.203Z,10.96
2017-05-07T15:15:06.246Z,11.82
2017-05-07T15:17:34.547Z,11.98
2017-05-07T15:20:02.883Z,12.52
2017-05-07T15:22:31.184Z,11.22
2017-05-07T15:24:59.480Z,11.82
2017-05-07T15:27:27.823Z,13.10
2017-05-07T15:29:56.123Z,11.14
2017-05-07T15:32:24.422Z,16.46
2017-05-07T15:34:52.755Z,14.24
2017-05-07T15:37:21.061Z,11.44
2017-05-07T15:39:49.368Z,14.34
2017-05-07T15:42:18.443Z,13.06
2017-05-07T15:44:46.743Z,14.60
2017-05-07T15:47:15.779Z,16.08
2017-05-07T15:49:44.116Z,11.60
2017-05-07T15:52:13.163Z,14.08
2017-05-07T15:54:41.463Z,14.42
2017-05-07T15:57:09.787Z,12.08
2017-05-07T15:59:38.088Z,11.34
2017-05-07T16:02:06.388Z,11.66
2017-05-07T16:04:34.724Z,10.40
2017-05-07T16:07:03.020Z,11.50
2017-05-07T16:09:31.320Z,13.06
2017-05-07T16:11:59.649Z,10.90
2017-05-07T16:14:27.952Z,12.02
2017-05-07T16:26:28.579Z,12.62
2017-05-07T16:29:11.783Z,10.86
2017-05-07T16:31:40.078Z,10.56
2017-05-07T16:34:08.375Z,9.38
2017-05-07T16:36:36.711Z,13.98
2017-05-07T16:39:05.011Z,14.20
2017-05-07T16:41:33.313Z,11.10
2017-05-07T16:44:01.641Z,11.54
2017-05-07T16:46:29.940Z,10.80
2017-05-07T16:48:58.240Z,13.76
2017-05-07T16:51:26.578Z,13.68
2017-05-07T16:53:54.110Z,12.16
2017-05-07T16:56:22.413Z,10.50
2017-05-07T16:58:51.489Z,17.82
2017-05-07T17:01:19.787Z,19.88
2017-05-07T17:03:48.831Z,22.94
2017-05-07T17:06:22.843Z,18.04
2017-05-07T17:08:51.139Z,21.02
2017-05-07T17:11:19.443Z,22.08
2017-05-07T17:13:47.776Z,24.58
2017-05-07T17:16:16.076Z,27.42
2017-05-07T17:18:45.114Z,21.24
2017-05-07T17:21:13.449Z,22.70
2017-05-07T17:23:42.491Z,23.52
2017-05-07T17:26:10.798Z,22.74
2017-05-07T17:28:39.132Z,28.36
2017-05-07T17:31:07.452Z,21.18
2017-05-07T17:33:35.750Z,26.84
2017-05-07T17:36:04.083Z,29.76
2017-05-07T17:38:32.383Z,27.24
2017-05-07T17:41:00.683Z,23.36
2017-05-07T17:43:29.011Z,25.66
2017-05-07T17:45:57.307Z,29.06
2017-05-07T17:48:25.609Z,41.02
2017-05-07T17:50:53.949Z,32.10
2017-05-07T17:53:22.248Z,32.50
2017-05-07T17:55:50.554Z,26.80
2017-05-07T17:58:19.632Z,31.92
2017-05-07T18:00:47.931Z,33.64
2017-05-07T18:03:16.980Z,19.94
2017-05-07T18:05:45.308Z,30.82
2017-05-07T18:08:14.347Z,24.04
2017-05-07T18:10:42.642Z,31.36
2017-05-07T18:13:10.974Z,24.50
2017-05-07T18:15:39.266Z,31.12
2017-05-07T18:18:07.558Z,25.36
2017-05-07T18:20:35.887Z,28.30
2017-05-07T18:23:04.928Z,26.98
2017-05-07T18:25:33.226Z,21.08
2017-05-07T18:28:01.559Z,15.06
2017-05-07T18:30:29.858Z,28.36
2017-05-07T18:32:58.154Z,31.02
2017-05-07T18:35:26.499Z,26.80
2017-05-07T18:37:54.799Z,25.20
2017-05-07T18:40:23.096Z,30.46
2017-05-07T18:42:51.436Z,28.24
2017-05-07T18:45:19.739Z,27.32
2017-05-07T18:47:48.047Z,30.50
2017-05-07T18:50:16.384Z,25.78
2017-05-07T18:52:44.676Z,28.34
2017-05-07T18:55:12.971Z,29.14
2017-05-07T18:57:41.291Z,27.90
2017-05-07T19:00:10.331Z,27.68
2017-05-07T19:02:38.663Z,30.94
2017-05-07T19:05:07.712Z,29.42
2017-05-07T19:07:36.012Z,30.42
2017-05-07T19:10:04.340Z,21.28
2017-05-07T19:12:32.640Z,20.06
2017-05-07T19:15:00.943Z,31.08
2017-05-07T19:17:29.279Z,22.62
2017-05-07T19:19:57.580Z,28.92
2017-05-07T19:22:25.880Z,27.58
2017-05-07T19:24:54.210Z,29.94
2017-05-07T19:27:22.511Z,23.20
2017-05-07T19:29:50.811Z,24.12
2017-05-07T19:32:19.152Z,23.60
2017-05-07T19:34:47.451Z,29.76
2017-05-07T19:37:15.749Z,24.58
2017-05-07T19:39:44.076Z,21.06
2017-05-07T19:42:12.375Z,22.66
2017-05-07T19:44:40.672Z,17.28
2017-05-07T19:47:09.014Z,25.48
2017-05-07T19:49:37.307Z,18.86
2017-05-07T19:52:05.608Z,29.90
2017-05-07T19:54:33.944Z,27.50
2017-05-07T19:57:02.240Z,22.26
2017-05-07T19:59:30.539Z,21.80
2017-05-07T20:01:58.858Z,25.46
2017-05-07T20:04:27.158Z,24.56
2017-05-07T20:06:55.461Z,23.42
2017-05-07T20:09:23.799Z,22.18
2017-05-07T20:11:53.570Z,26.56
2017-05-07T20:14:22.733Z,25.90
2017-05-07T20:16:51.249Z,31.22
2017-05-07T20:19:19.555Z,21.98
2017-05-07T20:21:48.623Z,22.46
2017-05-07T20:24:16.924Z,28.80
2017-05-07T20:26:45.960Z,23.36
2017-05-07T20:29:14.291Z,20.12
2017-05-07T20:31:43.335Z,21.66
2017-05-07T20:34:11.642Z,26.08
2017-05-07T20:36:39.985Z,23.94
2017-05-07T20:39:08.291Z,26.36
2017-05-07T20:41:36.595Z,22.38
2017-05-07T20:44:04.928Z,19.42
2017-05-07T20:46:33.231Z,16.64
2017-05-07T20:49:01.538Z,16.80
2017-05-07T20:51:30.599Z,15.84
2017-05-07T20:53:58.894Z,12.94
2017-05-07T20:56:27.187Z,11.84
2017-05-07T20:58:56.258Z,11.34
2017-05-07T21:01:24.556Z,15.56
2017-05-07T21:03:53.746Z,14.64
2017-05-07T21:06:22.079Z,18.98
2017-05-07T21:08:50.375Z,13.84
2017-05-07T21:11:18.672Z,10.94
2017-05-07T21:13:46.996Z,12.76
2017-05-07T21:16:15.294Z,10.96
2017-05-07T21:18:43.591Z,12.84
2017-05-07T21:21:11.926Z,11.00
2017-05-07T21:23:40.221Z,9.10
2017-05-07T21:26:08.519Z,9.74
2017-05-07T21:28:36.848Z,13.36
2017-05-07T21:31:05.139Z,10.84
2017-05-07T21:33:33.432Z,11.56
2017-05-07T21:36:01.767Z,19.26
2017-05-07T21:38:30.825Z,13.34
2017-05-07T21:40:59.119Z,10.14
2017-05-07T21:43:27.447Z,9.86
2017-05-07T21:45:55.741Z,7.64
2017-05-07T21:48:24.028Z,9.60
2017-05-07T21:50:52.346Z,7.40
2017-05-07T21:53:21.387Z,8.80
2017-05-07T21:55:49.680Z,7.82
2017-05-07T21:58:18.009Z,9.18
2017-05-07T22:00:47.044Z,8.34
2017-05-07T22:03:15.343Z,10.92
2017-05-07T22:05:43.668Z,11.38
2017-05-07T22:08:11.963Z,11.72
2017-05-07T22:10:40.255Z,10.96
2017-05-07T22:13:08.567Z,12.62
2017-05-07T22:15:36.858Z,11.66
2017-05-07T22:18:05.931Z,8.96
2017-05-07T22:20:34.228Z,8.16
2017-05-07T22:23:03.263Z,7.90
2017-05-07T22:25:31.578Z,7.42
2017-05-07T22:27:59.875Z,9.62
2017-05-07T22:30:28.915Z,11.40
2017-05-07T22:32:57.255Z,15.40
2017-05-07T22:35:26.295Z,9.02
2017-05-07T22:37:54.592Z,11.38
2017-05-07T22:40:22.933Z,12.12
2017-05-07T22:42:51.231Z,8.50
2017-05-07T22:45:19.523Z,8.22
2017-05-07T22:47:47.839Z,8.92
2017-05-07T22:50:16.879Z,7.86
2017-05-07T22:52:45.175Z,6.80
2017-05-07T22:55:13.511Z,7.10
2017-05-07T22:57:41.808Z,9.50
2017-05-07T23:00:10.104Z,5.60
2017-05-07T23:02:38.445Z,5.98
2017-05-07T23:05:06.743Z,5.42
2017-05-07T23:07:35.037Z,8.30
2017-05-07T23:10:03.360Z,7.88
2017-05-07T23:12:32.394Z,6.78
2017-05-07T23:15:00.690Z,14.12
2017-05-07T23:17:29.018Z,12.56
2017-05-07T23:19:57.321Z,11.98
2017-05-07T23:22:25.620Z,18.44
2017-05-07T23:24:53.956Z,10.42
2017-05-07T23:27:22.255Z,10.64
2017-05-07T23:29:50.547Z,8.50
2017-05-07T23:32:18.871Z,15.72
2017-05-07T23:34:47.903Z,14.90
2017-05-07T23:37:16.196Z,11.40
2017-05-07T23:39:44.536Z,10.86
2017-05-07T23:42:12.840Z,12.24
2017-05-07T23:44:41.136Z,10.72
2017-05-07T23:47:09.459Z,8.84
2017-05-07T23:49:38.495Z,8.72
2017-05-07T23:52:07.016Z,13.92
2017-05-07T23:54:35.364Z,13.86
2017-05-07T23:57:04.403Z,13.40
2017-05-07T23:59:32.703Z,15.00
